sensor_id;sensor_type;location;lat;lon;timestamp;pressure;altitude;pressure_sealevel;temperature;humidity
47536;BME280;33278;50.826;9.030;2022-08-04T00:02:10;98482.06;;;24.04;47.86
47536;BME280;33278;50.826;9.030;2022-08-04T00:04:59;98475.38;;;24.01;47.84
47536;BME280;33278;50.826;9.030;2022-08-04T00:07:42;98470.72;;;24.02;48.32
47536;BME280;33278;50.826;9.030;2022-08-04T00:10:16;98479.25;;;24.00;48.17
47536;BME280;33278;50.826;9.030;2022-08-04T00:12:50;98473.34;;;23.98;48.36
47536;BME280;33278;50.826;9.030;2022-08-04T00:15:22;98481.03;;;23.96;48.37
47536;BME280;33278;50.826;9.030;2022-08-04T00:17:59;98473.25;;;23.95;48.27
47536;BME280;33278;50.826;9.030;2022-08-04T00:20:32;98472.75;;;23.93;48.59
47536;BME280;33278;50.826;9.030;2022-08-04T00:23:05;98471.97;;;23.92;48.43
47536;BME280;33278;50.826;9.030;2022-08-04T00:25:39;98474.22;;;23.90;48.49
47536;BME280;33278;50.826;9.030;2022-08-04T00:28:11;98468.78;;;23.90;48.44
47536;BME280;33278;50.826;9.030;2022-08-04T00:30:41;98469.94;;;23.89;48.12
47536;BME280;33278;50.826;9.030;2022-08-04T00:33:20;98467.56;;;23.87;48.48
47536;BME280;33278;50.826;9.030;2022-08-04T00:35:50;98471.75;;;23.85;48.27
47536;BME280;33278;50.826;9.030;2022-08-04T00:38:22;98480.25;;;23.83;48.47
47536;BME280;33278;50.826;9.030;2022-08-04T00:41:12;98481.06;;;23.84;48.39
47536;BME280;33278;50.826;9.030;2022-08-04T01:01:07;98469.84;;;23.73;48.84
47536;BME280;33278;50.826;9.030;2022-08-04T01:03:55;98475.28;;;23.73;48.81
47536;BME280;33278;50.826;9.030;2022-08-04T01:19:58;98469.66;;;23.66;48.83
47536;BME280;33278;50.826;9.030;2022-08-04T01:30:17;98463.19;;;23.58;48.93
47536;BME280;33278;50.826;9.030;2022-08-04T01:32:54;98472.16;;;23.59;49.10
47536;BME280;33278;50.826;9.030;2022-08-04T01:35:35;98464.00;;;23.59;49.30
47536;BME280;33278;50.826;9.030;2022-08-04T01:38:34;98456.59;;;23.59;49.25
47536;BME280;33278;50.826;9.030;2022-08-04T01:41:07;98456.16;;;23.57;49.12
47536;BME280;33278;50.826;9.030;2022-08-04T01:43:41;98470.09;;;23.55;49.21
47536;BME280;33278;50.826;9.030;2022-08-04T01:46:15;98471.22;;;23.54;49.36
47536;BME280;33278;50.826;9.030;2022-08-04T01:48:46;98466.13;;;23.53;49.27
47536;BME280;33278;50.826;9.030;2022-08-04T01:51:23;98469.22;;;23.51;49.57
47536;BME280;33278;50.826;9.030;2022-08-04T01:53:54;98464.91;;;23.50;49.26
47536;BME280;33278;50.826;9.030;2022-08-04T01:56:27;98463.31;;;23.49;49.29
47536;BME280;33278;50.826;9.030;2022-08-04T01:58:58;98468.41;;;23.51;49.28
47536;BME280;33278;50.826;9.030;2022-08-04T02:01:35;98471.47;;;23.49;49.37
47536;BME280;33278;50.826;9.030;2022-08-04T02:04:06;98459.66;;;23.45;49.52
47536;BME280;33278;50.826;9.030;2022-08-04T02:06:51;98460.03;;;23.44;49.70
47536;BME280;33278;50.826;9.030;2022-08-04T02:15:14;98460.84;;;23.44;49.46
47536;BME280;33278;50.826;9.030;2022-08-04T02:17:56;98455.72;;;23.43;49.77
47536;BME280;33278;50.826;9.030;2022-08-04T02:20:33;98452.56;;;23.41;49.69
47536;BME280;33278;50.826;9.030;2022-08-04T02:23:07;98454.94;;;23.42;49.81
47536;BME280;33278;50.826;9.030;2022-08-04T02:25:45;98452.09;;;23.38;49.87
47536;BME280;33278;50.826;9.030;2022-08-04T02:28:29;98444.63;;;23.35;49.86
47536;BME280;33278;50.826;9.030;2022-08-04T02:34:21;98444.63;;;23.35;50.02
47536;BME280;33278;50.826;9.030;2022-08-04T02:36:55;98441.13;;;23.35;49.81
47536;BME280;33278;50.826;9.030;2022-08-04T02:39:32;98440.66;;;23.33;50.00
47536;BME280;33278;50.826;9.030;2022-08-04T02:42:04;98441.78;;;23.32;50.34
47536;BME280;33278;50.826;9.030;2022-08-04T02:44:35;98432.03;;;23.31;50.16
47536;BME280;33278;50.826;9.030;2022-08-04T02:47:07;98439.88;;;23.32;50.10
47536;BME280;33278;50.826;9.030;2022-08-04T02:49:38;98433.53;;;23.28;50.17
47536;BME280;33278;50.826;9.030;2022-08-04T02:52:12;98427.63;;;23.26;50.31
47536;BME280;33278;50.826;9.030;2022-08-04T02:54:44;98430.47;;;23.30;49.90
47536;BME280;33278;50.826;9.030;2022-08-04T02:57:16;98422.19;;;23.26;50.12
47536;BME280;33278;50.826;9.030;2022-08-04T03:02:58;98419.47;;;23.26;49.86
47536;BME280;33278;50.826;9.030;2022-08-04T03:12:11;98419.38;;;23.22;50.00
47536;BME280;33278;50.826;9.030;2022-08-04T03:38:57;98427.25;;;23.15;50.14
47536;BME280;33278;50.826;9.030;2022-08-04T03:44:45;98426.03;;;23.13;50.42
47536;BME280;33278;50.826;9.030;2022-08-04T03:56:48;98425.13;;;23.08;50.13
47536;BME280;33278;50.826;9.030;2022-08-04T04:16:57;98420.72;;;23.04;50.31
47536;BME280;33278;50.826;9.030;2022-08-04T04:22:57;98422.63;;;23.03;50.09
47536;BME280;33278;50.826;9.030;2022-08-04T04:25:48;98424.22;;;23.04;50.59
47536;BME280;33278;50.826;9.030;2022-08-04T04:28:49;98424.56;;;23.03;50.46
47536;BME280;33278;50.826;9.030;2022-08-04T04:31:30;98433.47;;;23.03;50.55
47536;BME280;33278;50.826;9.030;2022-08-04T04:34:17;98428.50;;;23.05;50.36
47536;BME280;33278;50.826;9.030;2022-08-04T04:42:37;98432.03;;;23.06;50.62
47536;BME280;33278;50.826;9.030;2022-08-04T04:45:20;98440.31;;;23.10;50.39
47536;BME280;33278;50.826;9.030;2022-08-04T04:47:57;98442.22;;;23.09;50.56
47536;BME280;33278;50.826;9.030;2022-08-04T04:56:26;98438.25;;;23.06;50.79
47536;BME280;33278;50.826;9.030;2022-08-04T04:59:00;98445.28;;;23.07;50.76
47536;BME280;33278;50.826;9.030;2022-08-04T05:04:28;98433.03;;;23.14;50.78
47536;BME280;33278;50.826;9.030;2022-08-04T05:10:05;98432.53;;;23.20;50.51
47536;BME280;33278;50.826;9.030;2022-08-04T05:13:01;98431.72;;;23.20;50.66
47536;BME280;33278;50.826;9.030;2022-08-04T05:15:40;98431.81;;;23.23;50.57
47536;BME280;33278;50.826;9.030;2022-08-04T05:18:16;98430.34;;;23.26;50.54
47536;BME280;33278;50.826;9.030;2022-08-04T05:20:54;98433.06;;;23.26;50.93
47536;BME280;33278;50.826;9.030;2022-08-04T05:23:28;98430.81;;;23.28;50.97
47536;BME280;33278;50.826;9.030;2022-08-04T05:26:10;98443.63;;;23.28;50.67
47536;BME280;33278;50.826;9.030;2022-08-04T05:28:47;98438.84;;;23.24;51.11
47536;BME280;33278;50.826;9.030;2022-08-04T05:31:22;98440.09;;;23.27;50.74
47536;BME280;33278;50.826;9.030;2022-08-04T05:33:59;98436.47;;;23.23;50.85
47536;BME280;33278;50.826;9.030;2022-08-04T05:36:49;98432.19;;;23.22;51.39
47536;BME280;33278;50.826;9.030;2022-08-04T05:39:28;98441.47;;;23.21;51.33
47536;BME280;33278;50.826;9.030;2022-08-04T05:42:00;98432.94;;;23.22;51.36
47536;BME280;33278;50.826;9.030;2022-08-04T05:44:32;98439.97;;;23.23;50.97
47536;BME280;33278;50.826;9.030;2022-08-04T05:47:04;98432.63;;;23.24;51.33
47536;BME280;33278;50.826;9.030;2022-08-04T05:49:35;98433.88;;;23.27;51.42
47536;BME280;33278;50.826;9.030;2022-08-04T05:52:09;98432.41;;;23.29;51.16
47536;BME280;33278;50.826;9.030;2022-08-04T05:54:40;98433.06;;;23.26;51.42
47536;BME280;33278;50.826;9.030;2022-08-04T05:57:11;98424.13;;;23.26;51.45
47536;BME280;33278;50.826;9.030;2022-08-04T05:59:42;98425.38;;;23.28;51.03
47536;BME280;33278;50.826;9.030;2022-08-04T06:02:17;98431.72;;;23.32;51.36
47536;BME280;33278;50.826;9.030;2022-08-04T06:04:50;98432.84;;;23.31;51.32
47536;BME280;33278;50.826;9.030;2022-08-04T06:07:21;98432.16;;;23.34;50.78
47536;BME280;33278;50.826;9.030;2022-08-04T06:09:52;98429.44;;;23.34;51.19
47536;BME280;33278;50.826;9.030;2022-08-04T06:12:31;98429.91;;;23.36;51.40
47536;BME280;33278;50.826;9.030;2022-08-04T06:15:06;98435.34;;;23.36;51.28
47536;BME280;33278;50.826;9.030;2022-08-04T06:17:39;98434.22;;;23.37;51.10
47536;BME280;33278;50.826;9.030;2022-08-04T06:20:13;98436.56;;;23.39;51.32
47536;BME280;33278;50.826;9.030;2022-08-04T06:22:46;98443.28;;;23.29;52.03
47536;BME280;33278;50.826;9.030;2022-08-04T06:25:21;98444.16;;;23.21;52.77
47536;BME280;33278;50.826;9.030;2022-08-04T06:27:53;98442.25;;;23.34;53.06
47536;BME280;33278;50.826;9.030;2022-08-04T06:30:29;98445.84;;;23.38;52.35
47536;BME280;33278;50.826;9.030;2022-08-04T06:33:01;98444.31;;;23.37;52.05
47536;BME280;33278;50.826;9.030;2022-08-04T06:35:43;98442.22;;;23.59;51.46
47536;BME280;33278;50.826;9.030;2022-08-04T06:38:14;98444.25;;;23.62;51.31
47536;BME280;33278;50.826;9.030;2022-08-04T06:40:45;98438.72;;;23.58;51.53
47536;BME280;33278;50.826;9.030;2022-08-04T06:43:17;98440.53;;;23.54;51.59
47536;BME280;33278;50.826;9.030;2022-08-04T06:45:48;98443.72;;;23.56;51.36
47536;BME280;33278;50.826;9.030;2022-08-04T06:48:20;98435.97;;;23.70;51.43
47536;BME280;33278;50.826;9.030;2022-08-04T06:50:51;98435.53;;;23.68;51.05
47536;BME280;33278;50.826;9.030;2022-08-04T06:53:23;98437.78;;;23.66;51.59
47536;BME280;33278;50.826;9.030;2022-08-04T06:55:55;98439.13;;;23.73;51.30
47536;BME280;33278;50.826;9.030;2022-08-04T06:58:29;98446.41;;;23.68;51.69
47536;BME280;33278;50.826;9.030;2022-08-04T07:01:01;98436.66;;;23.67;51.34
47536;BME280;33278;50.826;9.030;2022-08-04T07:03:32;98438.09;;;23.77;51.60
47536;BME280;33278;50.826;9.030;2022-08-04T07:06:03;98440.50;;;23.66;51.99
47536;BME280;33278;50.826;9.030;2022-08-04T07:08:34;98437.31;;;23.77;51.30
47536;BME280;33278;50.826;9.030;2022-08-04T07:11:05;98440.16;;;23.80;51.27
47536;BME280;33278;50.826;9.030;2022-08-04T07:13:36;98441.75;;;23.81;51.22
47536;BME280;33278;50.826;9.030;2022-08-04T07:16:08;98438.66;;;23.83;51.36
47536;BME280;33278;50.826;9.030;2022-08-04T07:18:39;98432.75;;;23.81;51.29
47536;BME280;33278;50.826;9.030;2022-08-04T07:21:10;98433.56;;;23.81;51.33
47536;BME280;33278;50.826;9.030;2022-08-04T07:23:48;98437.53;;;23.84;51.52
47536;BME280;33278;50.826;9.030;2022-08-04T07:26:25;98436.41;;;23.85;51.63
47536;BME280;33278;50.826;9.030;2022-08-04T07:28:56;98433.91;;;23.80;51.74
47536;BME280;33278;50.826;9.030;2022-08-04T07:31:28;98439.78;;;23.82;52.02
47536;BME280;33278;50.826;9.030;2022-08-04T07:34:00;98434.66;;;23.93;51.39
47536;BME280;33278;50.826;9.030;2022-08-04T07:36:31;98436.63;;;23.80;51.65
47536;BME280;33278;50.826;9.030;2022-08-04T07:39:01;98439.13;;;23.85;51.53
47536;BME280;33278;50.826;9.030;2022-08-04T07:41:32;98433.22;;;23.83;51.63
47536;BME280;33278;50.826;9.030;2022-08-04T07:44:03;98431.38;;;23.87;51.54
47536;BME280;33278;50.826;9.030;2022-08-04T07:46:35;98439.13;;;23.85;51.52
47536;BME280;33278;50.826;9.030;2022-08-04T07:49:06;98433.69;;;23.85;52.02
47536;BME280;33278;50.826;9.030;2022-08-04T07:51:37;98433.56;;;23.81;52.20
47536;BME280;33278;50.826;9.030;2022-08-04T07:54:07;98431.28;;;23.83;52.03
47536;BME280;33278;50.826;9.030;2022-08-04T07:56:40;98432.53;;;23.86;51.75
47536;BME280;33278;50.826;9.030;2022-08-04T07:59:11;98433.44;;;23.90;51.88
47536;BME280;33278;50.826;9.030;2022-08-04T08:01:41;98433.44;;;23.90;51.42
47536;BME280;33278;50.826;9.030;2022-08-04T08:04:13;98429.94;;;23.90;51.83
47536;BME280;33278;50.826;9.030;2022-08-04T08:06:43;98425.63;;;23.89;52.19
47536;BME280;33278;50.826;9.030;2022-08-04T08:09:16;98424.72;;;23.84;52.03
47536;BME280;33278;50.826;9.030;2022-08-04T08:11:50;98428.56;;;23.83;51.98
47536;BME280;33278;50.826;9.030;2022-08-04T08:14:21;98423.94;;;23.84;52.07
47536;BME280;33278;50.826;9.030;2022-08-04T08:16:52;98425.94;;;23.87;52.04
47536;BME280;33278;50.826;9.030;2022-08-04T08:19:22;98423.56;;;23.85;52.07
47536;BME280;33278;50.826;9.030;2022-08-04T08:21:53;98422.09;;;23.88;52.23
47536;BME280;33278;50.826;9.030;2022-08-04T08:24:23;98419.03;;;23.90;52.12
47536;BME280;33278;50.826;9.030;2022-08-04T08:26:54;98419.81;;;23.90;52.06
47536;BME280;33278;50.826;9.030;2022-08-04T08:29:27;98421.38;;;24.03;52.08
47536;BME280;33278;50.826;9.030;2022-08-04T08:31:58;98413.84;;;23.97;52.09
47536;BME280;33278;50.826;9.030;2022-08-04T08:34:31;98416.69;;;24.16;51.52
47536;BME280;33278;50.826;9.030;2022-08-04T08:37:43;98411.75;;;24.06;51.71
47536;BME280;33278;50.826;9.030;2022-08-04T08:40:26;98414.13;;;24.08;52.08
47536;BME280;33278;50.826;9.030;2022-08-04T08:48:47;98422.53;;;24.02;51.98
47536;BME280;33278;50.826;9.030;2022-08-04T08:59:49;98414.63;;;24.26;51.30
47536;BME280;33278;50.826;9.030;2022-08-04T09:05:33;98405.22;;;24.23;51.78
47536;BME280;33278;50.826;9.030;2022-08-04T09:08:18;98406.63;;;24.17;51.72
47536;BME280;33278;50.826;9.030;2022-08-04T09:10:59;98398.78;;;24.15;51.95
47536;BME280;33278;50.826;9.030;2022-08-04T09:13:54;98405.22;;;24.23;51.66
47536;BME280;33278;50.826;9.030;2022-08-04T09:16:39;98413.47;;;24.27;51.51
47536;BME280;33278;50.826;9.030;2022-08-04T09:19:18;98416.22;;;24.27;51.77
47536;BME280;33278;50.826;9.030;2022-08-04T09:21:58;98405.69;;;24.25;51.47
47536;BME280;33278;50.826;9.030;2022-08-04T09:27:29;98401.59;;;24.19;51.90
47536;BME280;33278;50.826;9.030;2022-08-04T09:30:09;98397.75;;;24.20;51.83
47536;BME280;33278;50.826;9.030;2022-08-04T09:33:09;98399.50;;;24.28;51.29
47536;BME280;33278;50.826;9.030;2022-08-04T09:35:57;98402.03;;;24.21;51.25
47536;BME280;33278;50.826;9.030;2022-08-04T09:38:45;98399.09;;;23.98;51.97
47536;BME280;33278;50.826;9.030;2022-08-04T09:41:47;98406.63;;;24.17;51.79
47536;BME280;33278;50.826;9.030;2022-08-04T09:47:48;98395.53;;;24.10;51.72
47536;BME280;33278;50.826;9.030;2022-08-04T09:50:46;98394.53;;;24.30;51.51
47536;BME280;33278;50.826;9.030;2022-08-04T10:01:43;98389.16;;;24.34;51.44
47536;BME280;33278;50.826;9.030;2022-08-04T10:04:15;98381.78;;;24.34;51.47
47536;BME280;33278;50.826;9.030;2022-08-04T10:10:19;98381.59;;;24.27;51.75
47536;BME280;33278;50.826;9.030;2022-08-04T10:15:50;98379.06;;;24.34;51.83
47536;BME280;33278;50.826;9.030;2022-08-04T10:19:10;98378.56;;;24.45;51.54
47536;BME280;33278;50.826;9.030;2022-08-04T10:21:58;98374.34;;;24.47;51.32
47536;BME280;33278;50.826;9.030;2022-08-04T10:24:41;98373.97;;;24.49;51.50
47536;BME280;33278;50.826;9.030;2022-08-04T10:27:35;98366.25;;;24.51;51.38
47536;BME280;33278;50.826;9.030;2022-08-04T10:30:08;98365.63;;;24.42;51.65
47536;BME280;33278;50.826;9.030;2022-08-04T10:33:04;98376.44;;;24.38;51.59
47536;BME280;33278;50.826;9.030;2022-08-04T10:35:50;98371.34;;;24.53;51.65
47536;BME280;33278;50.826;9.030;2022-08-04T10:38:41;98369.25;;;24.46;51.74
47536;BME280;33278;50.826;9.030;2022-08-04T10:41:32;98362.66;;;24.47;52.08
47536;BME280;33278;50.826;9.030;2022-08-04T10:47:19;98356.94;;;24.52;52.07
47536;BME280;33278;50.826;9.030;2022-08-04T10:49:59;98351.09;;;24.66;51.58
47536;BME280;33278;50.826;9.030;2022-08-04T10:52:41;98357.41;;;24.70;51.45
47536;BME280;33278;50.826;9.030;2022-08-04T10:55:23;98344.19;;;24.56;51.56
47536;BME280;33278;50.826;9.030;2022-08-04T10:58:01;98344.56;;;24.55;52.01
47536;BME280;33278;50.826;9.030;2022-08-04T11:00:35;98341.22;;;24.61;51.99
47536;BME280;33278;50.826;9.030;2022-08-04T11:03:29;98338.97;;;24.63;51.50
47536;BME280;33278;50.826;9.030;2022-08-04T11:06:04;98323.59;;;24.55;51.49
47536;BME280;33278;50.826;9.030;2022-08-04T11:08:36;98328.31;;;24.58;52.28
47536;BME280;33278;50.826;9.030;2022-08-04T11:14:07;98338.25;;;24.50;51.88
47536;BME280;33278;50.826;9.030;2022-08-04T11:16:46;98331.03;;;24.58;51.96
47536;BME280;33278;50.826;9.030;2022-08-04T11:19:40;98335.25;;;24.40;51.57
47536;BME280;33278;50.826;9.030;2022-08-04T11:22:23;98340.63;;;24.36;52.20
47536;BME280;33278;50.826;9.030;2022-08-04T11:27:53;98338.25;;;24.50;52.12
47536;BME280;33278;50.826;9.030;2022-08-04T11:30:30;98336.66;;;24.49;52.24
47536;BME280;33278;50.826;9.030;2022-08-04T11:35:57;98341.75;;;24.51;51.94
47536;BME280;33278;50.826;9.030;2022-08-04T11:41:56;98336.84;;;24.57;52.07
47536;BME280;33278;50.826;9.030;2022-08-04T11:44:39;98339.66;;;24.60;51.83
47536;BME280;33278;50.826;9.030;2022-08-04T11:47:24;98337.28;;;24.59;52.20
47536;BME280;33278;50.826;9.030;2022-08-04T11:50:04;98338.50;;;24.61;51.93
47536;BME280;33278;50.826;9.030;2022-08-04T11:52:40;98347.13;;;24.79;51.82
47536;BME280;33278;50.826;9.030;2022-08-04T11:55:14;98338.72;;;24.69;52.18
47536;BME280;33278;50.826;9.030;2022-08-04T11:57:46;98337.78;;;24.64;52.03
47536;BME280;33278;50.826;9.030;2022-08-04T12:00:17;98335.88;;;24.65;52.17
47536;BME280;33278;50.826;9.030;2022-08-04T12:02:59;98336.84;;;24.73;52.03
47536;BME280;33278;50.826;9.030;2022-08-04T12:05:34;98340.72;;;24.72;52.02
47536;BME280;33278;50.826;9.030;2022-08-04T12:08:25;98339.19;;;24.58;51.62
47536;BME280;33278;50.826;9.030;2022-08-04T12:11:22;98344.25;;;24.72;51.81
47536;BME280;33278;50.826;9.030;2022-08-04T12:17:00;98334.13;;;24.57;52.19
47536;BME280;33278;50.826;9.030;2022-08-04T12:19:47;98337.63;;;24.57;52.08
47536;BME280;33278;50.826;9.030;2022-08-04T12:22:24;98323.13;;;24.53;52.10
47536;BME280;33278;50.826;9.030;2022-08-04T12:25:08;98329.81;;;24.56;51.92
47536;BME280;33278;50.826;9.030;2022-08-04T12:28:23;98331.31;;;24.53;52.18
47536;BME280;33278;50.826;9.030;2022-08-04T12:31:02;98327.00;;;24.52;51.94
47536;BME280;33278;50.826;9.030;2022-08-04T12:33:42;98327.44;;;24.54;52.17
47536;BME280;33278;50.826;9.030;2022-08-04T12:36:20;98322.00;;;24.54;52.15
47536;BME280;33278;50.826;9.030;2022-08-04T12:39:15;98328.59;;;24.53;52.05
47536;BME280;33278;50.826;9.030;2022-08-04T12:44:40;98311.09;;;24.54;51.95
47536;BME280;33278;50.826;9.030;2022-08-04T12:47:13;98319.28;;;24.54;51.88
47536;BME280;33278;50.826;9.030;2022-08-04T12:49:46;98326.81;;;24.61;51.93
47536;BME280;33278;50.826;9.030;2022-08-04T12:52:18;98329.03;;;24.55;51.80
47536;BME280;33278;50.826;9.030;2022-08-04T12:54:53;98320.41;;;24.53;51.98
47536;BME280;33278;50.826;9.030;2022-08-04T12:57:24;98324.28;;;24.52;52.16
47536;BME280;33278;50.826;9.030;2022-08-04T12:59:55;98322.00;;;24.54;52.09
47536;BME280;33278;50.826;9.030;2022-08-04T13:02:29;98321.19;;;24.54;52.19
47536;BME280;33278;50.826;9.030;2022-08-04T13:05:03;98316.88;;;24.53;51.96
47536;BME280;33278;50.826;9.030;2022-08-04T13:07:37;98321.56;;;24.52;51.77
47536;BME280;33278;50.826;9.030;2022-08-04T13:10:15;98314.97;;;24.53;51.92
47536;BME280;33278;50.826;9.030;2022-08-04T13:12:57;98314.81;;;24.78;51.71
47536;BME280;33278;50.826;9.030;2022-08-04T13:15:28;98310.66;;;24.84;51.20
47536;BME280;33278;50.826;9.030;2022-08-04T13:18:06;98310.06;;;24.75;51.74
47536;BME280;33278;50.826;9.030;2022-08-04T13:20:38;98315.59;;;24.78;51.61
47536;BME280;33278;50.826;9.030;2022-08-04T13:23:10;98307.41;;;24.78;51.70
47536;BME280;33278;50.826;9.030;2022-08-04T13:25:48;98295.03;;;24.81;51.37
47536;BME280;33278;50.826;9.030;2022-08-04T13:28:22;98306.53;;;24.90;51.43
47536;BME280;33278;50.826;9.030;2022-08-04T13:30:56;98298.56;;;24.81;51.79
47536;BME280;33278;50.826;9.030;2022-08-04T13:33:30;98306.19;;;24.76;51.60
47536;BME280;33278;50.826;9.030;2022-08-04T13:36:02;98298.81;;;24.76;51.73
47536;BME280;33278;50.826;9.030;2022-08-04T13:38:38;98293.78;;;24.78;52.07
47536;BME280;33278;50.826;9.030;2022-08-04T13:41:10;98285.63;;;24.78;52.10
47536;BME280;33278;50.826;9.030;2022-08-04T13:43:44;98291.06;;;24.78;51.87
47536;BME280;33278;50.826;9.030;2022-08-04T13:46:21;98288.16;;;24.87;51.94
47536;BME280;33278;50.826;9.030;2022-08-04T13:48:54;98290.25;;;24.94;51.69
47536;BME280;33278;50.826;9.030;2022-08-04T13:51:27;98281.31;;;24.93;51.53
47536;BME280;33278;50.826;9.030;2022-08-04T13:54:00;98278.22;;;24.95;51.57
47536;BME280;33278;50.826;9.030;2022-08-04T13:56:46;98276.63;;;24.94;51.65
47536;BME280;33278;50.826;9.030;2022-08-04T13:59:18;98272.41;;;24.96;51.54
47536;BME280;33278;50.826;9.030;2022-08-04T14:02:36;98272.00;;;24.78;51.88
47536;BME280;33278;50.826;9.030;2022-08-04T14:05:29;98272.28;;;24.73;51.87
47536;BME280;33278;50.826;9.030;2022-08-04T14:08:19;98272.97;;;24.70;52.13
47536;BME280;33278;50.826;9.030;2022-08-04T14:10:56;98270.25;;;24.70;51.81
47536;BME280;33278;50.826;9.030;2022-08-04T14:13:29;98258.91;;;24.68;51.57
47536;BME280;33278;50.826;9.030;2022-08-04T14:16:00;98258.91;;;24.68;51.64
47536;BME280;33278;50.826;9.030;2022-08-04T14:18:31;98253.47;;;24.68;51.42
47536;BME280;33278;50.826;9.030;2022-08-04T14:21:07;98242.13;;;24.66;51.47
47536;BME280;33278;50.826;9.030;2022-08-04T14:23:52;98237.50;;;24.67;51.40
47536;BME280;33278;50.826;9.030;2022-08-04T14:26:30;98232.84;;;24.67;51.24
47536;BME280;33278;50.826;9.030;2022-08-04T14:29:10;98237.94;;;24.69;51.27
47536;BME280;33278;50.826;9.030;2022-08-04T14:31:41;98222.63;;;24.64;51.08
47536;BME280;33278;50.826;9.030;2022-08-04T14:34:26;98224.13;;;24.61;51.45
47536;BME280;33278;50.826;9.030;2022-08-04T14:37:06;98230.34;;;24.78;51.33
47536;BME280;33278;50.826;9.030;2022-08-04T14:39:42;98220.59;;;24.77;51.27
47536;BME280;33278;50.826;9.030;2022-08-04T14:42:13;98223.75;;;24.79;51.65
47536;BME280;33278;50.826;9.030;2022-08-04T14:44:55;98227.63;;;24.78;51.45
47536;BME280;33278;50.826;9.030;2022-08-04T14:47:45;98228.44;;;24.62;51.27
47536;BME280;33278;50.826;9.030;2022-08-04T14:50:16;98226.59;;;24.67;51.42
47536;BME280;33278;50.826;9.030;2022-08-04T14:52:47;98222.47;;;24.57;51.33
47536;BME280;33278;50.826;9.030;2022-08-04T14:55:22;98226.53;;;24.31;51.44
47536;BME280;33278;50.826;9.030;2022-08-04T14:57:53;98217.06;;;24.25;52.04
47536;BME280;33278;50.826;9.030;2022-08-04T15:00:32;98216.53;;;24.19;52.09
47536;BME280;33278;50.826;9.030;2022-08-04T15:03:06;98212.94;;;24.15;52.28
47536;BME280;33278;50.826;9.030;2022-08-04T15:05:41;98213.97;;;24.10;52.48
47536;BME280;33278;50.826;9.030;2022-08-04T15:08:12;98220.66;;;24.13;52.54
47536;BME280;33278;50.826;9.030;2022-08-04T15:10:43;98213.88;;;24.39;52.04
47536;BME280;33278;50.826;9.030;2022-08-04T15:13:14;98224.94;;;24.46;51.88
47536;BME280;33278;50.826;9.030;2022-08-04T15:15:44;98220.03;;;24.52;51.66
47536;BME280;33278;50.826;9.030;2022-08-04T15:18:15;98221.41;;;24.61;51.72
47536;BME280;33278;50.826;9.030;2022-08-04T15:20:45;98212.28;;;24.70;51.60
47536;BME280;33278;50.826;9.030;2022-08-04T15:23:16;98218.13;;;24.72;51.59
47536;BME280;33278;50.826;9.030;2022-08-04T15:25:49;98220.09;;;24.71;51.83
47536;BME280;33278;50.826;9.030;2022-08-04T15:28:22;98217.59;;;24.82;51.24
47536;BME280;33278;50.826;9.030;2022-08-04T15:30:54;98222.41;;;24.89;51.17
47536;BME280;33278;50.826;9.030;2022-08-04T15:33:25;98209.22;;;24.91;51.04
47536;BME280;33278;50.826;9.030;2022-08-04T15:36:19;98216.69;;;24.94;51.32
47536;BME280;33278;50.826;9.030;2022-08-04T15:39:02;98221.75;;;24.95;51.40
47536;BME280;33278;50.826;9.030;2022-08-04T15:44:48;98210.72;;;24.88;51.48
47536;BME280;33278;50.826;9.030;2022-08-04T15:47:27;98202.97;;;24.90;51.54
47536;BME280;33278;50.826;9.030;2022-08-04T15:50:15;98216.53;;;24.87;51.83
47536;BME280;33278;50.826;9.030;2022-08-04T15:55:37;98206.41;;;24.87;51.99
47536;BME280;33278;50.826;9.030;2022-08-04T15:58:12;98216.16;;;24.88;52.06
47536;BME280;33278;50.826;9.030;2022-08-04T16:24:36;98202.28;;;24.93;51.82
47536;BME280;33278;50.826;9.030;2022-08-04T16:27:08;98207.72;;;24.93;51.88
47536;BME280;33278;50.826;9.030;2022-08-04T16:29:41;98203.41;;;24.92;51.84
47536;BME280;33278;50.826;9.030;2022-08-04T16:32:22;98198.31;;;24.91;51.76
47536;BME280;33278;50.826;9.030;2022-08-04T16:34:55;98205.00;;;24.93;51.62
47536;BME280;33278;50.826;9.030;2022-08-04T16:37:41;98201.31;;;24.86;51.84
47536;BME280;33278;50.826;9.030;2022-08-04T16:40:29;98196.94;;;24.81;51.64
47536;BME280;33278;50.826;9.030;2022-08-04T16:43:03;98199.66;;;24.81;51.74
47536;BME280;33278;50.826;9.030;2022-08-04T16:46:11;98193.75;;;24.95;51.69
47536;BME280;33278;50.826;9.030;2022-08-04T16:49:04;98193.44;;;25.00;51.65
47536;BME280;33278;50.826;9.030;2022-08-04T16:51:35;98194.88;;;24.94;51.98
47536;BME280;33278;50.826;9.030;2022-08-04T16:54:05;98193.97;;;25.06;51.45
47536;BME280;33278;50.826;9.030;2022-08-04T16:56:36;98197.13;;;25.08;51.64
47536;BME280;33278;50.826;9.030;2022-08-04T16:59:08;98188.06;;;25.04;51.75
47536;BME280;33278;50.826;9.030;2022-08-04T17:01:50;98192.59;;;24.96;52.00
47536;BME280;33278;50.826;9.030;2022-08-04T17:04:28;98184.75;;;24.94;51.82
47536;BME280;33278;50.826;9.030;2022-08-04T17:07:04;98190.13;;;24.91;52.17
47536;BME280;33278;50.826;9.030;2022-08-04T17:09:34;98179.31;;;24.94;52.06
47536;BME280;33278;50.826;9.030;2022-08-04T17:12:05;98190.66;;;24.96;52.29
47536;BME280;33278;50.826;9.030;2022-08-04T17:14:35;98189.94;;;25.00;51.92
47536;BME280;33278;50.826;9.030;2022-08-04T17:17:06;98195.38;;;25.19;51.49
47536;BME280;33278;50.826;9.030;2022-08-04T17:19:36;98193.97;;;25.06;51.82
47536;BME280;33278;50.826;9.030;2022-08-04T17:22:07;98190.38;;;25.02;51.99
47536;BME280;33278;50.826;9.030;2022-08-04T17:24:39;98190.78;;;25.04;51.86
47536;BME280;33278;50.826;9.030;2022-08-04T17:27:10;98184.19;;;25.05;52.22
47536;BME280;33278;50.826;9.030;2022-08-04T17:29:40;98187.38;;;25.07;52.20
47536;BME280;33278;50.826;9.030;2022-08-04T17:32:15;98189.22;;;25.03;52.32
47536;BME280;33278;50.826;9.030;2022-08-04T17:34:47;98184.50;;;25.00;52.27